sensor_id;sensor_type;location;lat;lon;timestamp;P1;durP1;ratioP1;P2;durP2;ratioP2
67869;SDS011;54673;52.262;6.830;2024-03-02T00:01:03;2.53;;;1.40;;
67869;SDS011;54673;52.262;6.830;2024-03-02T00:03:29;3.70;;;1.90;;
67869;SDS011;54673;52.262;6.830;2024-03-02T00:05:54;3.23;;;2.10;;
67869;SDS011;54673;52.262;6.830;2024-03-02T00:08:24;3.05;;;1.42;;
67869;SDS011;54673;52.262;6.830;2024-03-02T00:10:59;3.45;;;1.45;;
67869;SDS011;54673;52.262;6.830;2024-03-02T00:13:27;3.17;;;1.42;;
67869;SDS011;54673;52.262;6.830;2024-03-02T00:15:55;1.75;;;1.40;;
67869;SDS011;54673;52.262;6.830;2024-03-02T00:20:52;2.95;;;1.55;;
67869;SDS011;54673;52.262;6.830;2024-03-02T00:23:20;3.35;;;1.58;;
67869;SDS011;54673;52.262;6.830;2024-03-02T00:25:47;3.47;;;1.65;;
67869;SDS011;54673;52.262;6.830;2024-03-02T00:28:17;2.13;;;1.50;;
67869;SDS011;54673;52.262;6.830;2024-03-02T00:30:51;4.20;;;1.90;;
67869;SDS011;54673;52.262;6.830;2024-03-02T00:33:21;2.75;;;1.60;;
67869;SDS011;54673;52.262;6.830;2024-03-02T00:35:48;3.15;;;1.55;;
67869;SDS011;54673;52.262;6.830;2024-03-02T00:38:15;2.58;;;1.38;;
67869;SDS011;54673;52.262;6.830;2024-03-02T00:40:41;4.85;;;1.60;;
67869;SDS011;54673;52.262;6.830;2024-03-02T00:46:06;2.40;;;1.60;;
67869;SDS011;54673;52.262;6.830;2024-03-02T00:48:31;2.37;;;1.57;;
67869;SDS011;54673;52.262;6.830;2024-03-02T00:51:00;3.60;;;1.65;;
67869;SDS011;54673;52.262;6.830;2024-03-02T00:53:28;1.90;;;1.38;;
67869;SDS011;54673;52.262;6.830;2024-03-02T00:55:55;2.67;;;1.85;;
67869;SDS011;54673;52.262;6.830;2024-03-02T00:58:20;2.72;;;1.60;;
67869;SDS011;54673;52.262;6.830;2024-03-02T01:00:46;2.00;;;1.40;;
67869;SDS011;54673;52.262;6.830;2024-03-02T01:03:11;2.77;;;1.73;;
67869;SDS011;54673;52.262;6.830;2024-03-02T01:05:41;3.35;;;1.90;;
67869;SDS011;54673;52.262;6.830;2024-03-02T01:08:07;4.50;;;2.00;;
67869;SDS011;54673;52.262;6.830;2024-03-02T01:10:33;2.60;;;1.52;;
67869;SDS011;54673;52.262;6.830;2024-03-02T01:12:59;3.30;;;1.83;;
67869;SDS011;54673;52.262;6.830;2024-03-02T01:15:25;2.17;;;1.50;;
67869;SDS011;54673;52.262;6.830;2024-03-02T01:17:50;3.97;;;2.30;;
67869;SDS011;54673;52.262;6.830;2024-03-02T01:20:16;5.15;;;2.20;;
67869;SDS011;54673;52.262;6.830;2024-03-02T01:22:42;5.65;;;1.92;;
67869;SDS011;54673;52.262;6.830;2024-03-02T01:25:08;1.75;;;1.38;;
67869;SDS011;54673;52.262;6.830;2024-03-02T01:27:34;3.42;;;1.80;;
67869;SDS011;54673;52.262;6.830;2024-03-02T01:29:59;1.95;;;1.45;;
67869;SDS011;54673;52.262;6.830;2024-03-02T01:32:25;3.45;;;2.10;;
67869;SDS011;54673;52.262;6.830;2024-03-02T01:34:51;2.80;;;1.57;;
67869;SDS011;54673;52.262;6.830;2024-03-02T01:37:16;3.67;;;1.80;;
67869;SDS011;54673;52.262;6.830;2024-03-02T01:39:42;3.43;;;1.90;;
67869;SDS011;54673;52.262;6.830;2024-03-02T01:42:07;2.60;;;1.47;;
67869;SDS011;54673;52.262;6.830;2024-03-02T01:44:33;3.10;;;1.58;;
67869;SDS011;54673;52.262;6.830;2024-03-02T01:46:58;4.13;;;1.90;;
67869;SDS011;54673;52.262;6.830;2024-03-02T01:49:24;4.27;;;2.07;;
67869;SDS011;54673;52.262;6.830;2024-03-02T01:51:50;3.20;;;1.58;;
67869;SDS011;54673;52.262;6.830;2024-03-02T01:54:15;4.13;;;1.83;;
67869;SDS011;54673;52.262;6.830;2024-03-02T01:56:41;2.38;;;1.35;;
67869;SDS011;54673;52.262;6.830;2024-03-02T01:59:06;2.27;;;1.43;;
67869;SDS011;54673;52.262;6.830;2024-03-02T02:01:32;2.90;;;1.93;;
67869;SDS011;54673;52.262;6.830;2024-03-02T02:03:58;3.40;;;1.60;;
67869;SDS011;54673;52.262;6.830;2024-03-02T02:06:23;3.17;;;1.40;;
67869;SDS011;54673;52.262;6.830;2024-03-02T02:08:49;1.55;;;1.25;;
67869;SDS011;54673;52.262;6.830;2024-03-02T02:11:15;2.33;;;1.73;;
67869;SDS011;54673;52.262;6.830;2024-03-02T02:13:41;2.30;;;1.42;;
67869;SDS011;54673;52.262;6.830;2024-03-02T02:16:07;3.90;;;1.83;;
67869;SDS011;54673;52.262;6.830;2024-03-02T02:18:33;2.00;;;1.20;;
67869;SDS011;54673;52.262;6.830;2024-03-02T02:21:00;4.37;;;1.90;;
67869;SDS011;54673;52.262;6.830;2024-03-02T02:23:25;2.28;;;1.05;;
67869;SDS011;54673;52.262;6.830;2024-03-02T02:25:51;2.47;;;1.33;;
67869;SDS011;54673;52.262;6.830;2024-03-02T02:28:16;1.80;;;1.13;;
67869;SDS011;54673;52.262;6.830;2024-03-02T02:30:42;2.33;;;1.40;;
67869;SDS011;54673;52.262;6.830;2024-03-02T02:33:08;2.17;;;1.60;;
67869;SDS011;54673;52.262;6.830;2024-03-02T02:35:34;1.58;;;0.98;;
67869;SDS011;54673;52.262;6.830;2024-03-02T02:37:59;2.80;;;0.90;;
67869;SDS011;54673;52.262;6.830;2024-03-02T02:40:26;3.17;;;1.35;;
67869;SDS011;54673;52.262;6.830;2024-03-02T02:42:54;3.20;;;1.90;;
67869;SDS011;54673;52.262;6.830;2024-03-02T02:45:19;2.15;;;1.08;;
67869;SDS011;54673;52.262;6.830;2024-03-02T02:47:45;2.50;;;1.43;;
67869;SDS011;54673;52.262;6.830;2024-03-02T02:50:11;3.53;;;1.60;;
67869;SDS011;54673;52.262;6.830;2024-03-02T02:52:37;2.58;;;1.25;;
67869;SDS011;54673;52.262;6.830;2024-03-02T02:55:05;3.35;;;1.73;;
67869;SDS011;54673;52.262;6.830;2024-03-02T02:57:32;2.88;;;1.33;;
67869;SDS011;54673;52.262;6.830;2024-03-02T03:00:05;1.58;;;1.10;;
67869;SDS011;54673;52.262;6.830;2024-03-02T03:02:38;1.93;;;1.13;;
67869;SDS011;54673;52.262;6.830;2024-03-02T03:05:05;3.22;;;1.85;;
67869;SDS011;54673;52.262;6.830;2024-03-02T03:07:32;2.10;;;1.30;;
67869;SDS011;54673;52.262;6.830;2024-03-02T03:09:59;2.90;;;1.30;;
67869;SDS011;54673;52.262;6.830;2024-03-02T03:12:24;2.33;;;1.40;;
67869;SDS011;54673;52.262;6.830;2024-03-02T03:14:50;2.45;;;1.33;;
67869;SDS011;54673;52.262;6.830;2024-03-02T03:17:15;1.97;;;1.47;;
67869;SDS011;54673;52.262;6.830;2024-03-02T03:19:42;2.47;;;1.50;;
67869;SDS011;54673;52.262;6.830;2024-03-02T03:22:07;2.07;;;1.37;;
67869;SDS011;54673;52.262;6.830;2024-03-02T03:24:33;2.28;;;1.17;;
67869;SDS011;54673;52.262;6.830;2024-03-02T03:26:59;3.23;;;1.20;;
67869;SDS011;54673;52.262;6.830;2024-03-02T03:29:24;5.05;;;1.50;;
67869;SDS011;54673;52.262;6.830;2024-03-02T03:31:50;1.50;;;1.20;;
67869;SDS011;54673;52.262;6.830;2024-03-02T03:34:15;2.87;;;1.60;;
67869;SDS011;54673;52.262;6.830;2024-03-02T03:36:41;3.33;;;1.10;;
67869;SDS011;54673;52.262;6.830;2024-03-02T03:39:07;2.60;;;1.20;;
67869;SDS011;54673;52.262;6.830;2024-03-02T03:41:33;1.90;;;1.35;;
67869;SDS011;54673;52.262;6.830;2024-03-02T03:43:58;2.43;;;1.43;;
67869;SDS011;54673;52.262;6.830;2024-03-02T03:46:24;2.93;;;1.50;;
67869;SDS011;54673;52.262;6.830;2024-03-02T03:48:49;3.10;;;1.60;;
67869;SDS011;54673;52.262;6.830;2024-03-02T03:51:15;1.53;;;1.17;;
67869;SDS011;54673;52.262;6.830;2024-03-02T03:53:41;3.28;;;1.13;;
67869;SDS011;54673;52.262;6.830;2024-03-02T03:56:07;2.35;;;1.50;;
67869;SDS011;54673;52.262;6.830;2024-03-02T03:58:32;4.07;;;1.27;;
67869;SDS011;54673;52.262;6.830;2024-03-02T04:00:58;2.30;;;1.23;;
67869;SDS011;54673;52.262;6.830;2024-03-02T04:03:23;2.90;;;1.33;;
67869;SDS011;54673;52.262;6.830;2024-03-02T04:05:49;1.90;;;1.23;;
67869;SDS011;54673;52.262;6.830;2024-03-02T04:08:15;1.88;;;1.30;;
67869;SDS011;54673;52.262;6.830;2024-03-02T04:10:40;2.33;;;1.37;;
67869;SDS011;54673;52.262;6.830;2024-03-02T04:13:07;3.50;;;1.48;;
67869;SDS011;54673;52.262;6.830;2024-03-02T04:15:32;4.97;;;1.17;;
67869;SDS011;54673;52.262;6.830;2024-03-02T04:17:58;3.20;;;1.27;;
67869;SDS011;54673;52.262;6.830;2024-03-02T04:20:24;2.33;;;1.40;;
67869;SDS011;54673;52.262;6.830;2024-03-02T04:22:50;4.43;;;1.40;;
67869;SDS011;54673;52.262;6.830;2024-03-02T04:25:16;6.83;;;1.70;;
67869;SDS011;54673;52.262;6.830;2024-03-02T04:27:41;1.63;;;1.13;;
67869;SDS011;54673;52.262;6.830;2024-03-02T04:30:07;2.83;;;1.40;;
67869;SDS011;54673;52.262;6.830;2024-03-02T04:32:33;2.35;;;1.30;;
67869;SDS011;54673;52.262;6.830;2024-03-02T04:34:58;2.45;;;1.23;;
67869;SDS011;54673;52.262;6.830;2024-03-02T04:37:24;2.60;;;1.67;;
67869;SDS011;54673;52.262;6.830;2024-03-02T04:39:49;1.43;;;0.97;;
67869;SDS011;54673;52.262;6.830;2024-03-02T04:42:15;2.25;;;1.20;;
67869;SDS011;54673;52.262;6.830;2024-03-02T04:44:40;2.40;;;1.63;;
67869;SDS011;54673;52.262;6.830;2024-03-02T04:47:06;1.87;;;1.03;;
67869;SDS011;54673;52.262;6.830;2024-03-02T04:49:32;3.50;;;1.30;;
67869;SDS011;54673;52.262;6.830;2024-03-02T04:51:57;2.43;;;1.20;;
67869;SDS011;54673;52.262;6.830;2024-03-02T04:54:23;2.53;;;1.53;;
67869;SDS011;54673;52.262;6.830;2024-03-02T04:56:48;1.67;;;1.40;;
67869;SDS011;54673;52.262;6.830;2024-03-02T04:59:17;2.00;;;1.30;;
67869;SDS011;54673;52.262;6.830;2024-03-02T05:01:43;2.80;;;1.20;;
67869;SDS011;54673;52.262;6.830;2024-03-02T05:04:09;2.03;;;1.08;;
67869;SDS011;54673;52.262;6.830;2024-03-02T05:06:39;1.83;;;1.20;;
67869;SDS011;54673;52.262;6.830;2024-03-02T05:09:06;2.22;;;1.20;;
67869;SDS011;54673;52.262;6.830;2024-03-02T05:11:32;1.77;;;1.10;;
67869;SDS011;54673;52.262;6.830;2024-03-02T05:14:03;1.73;;;0.95;;
67869;SDS011;54673;52.262;6.830;2024-03-02T05:16:32;1.60;;;0.90;;
67869;SDS011;54673;52.262;6.830;2024-03-02T05:19:05;2.47;;;0.80;;
67869;SDS011;54673;52.262;6.830;2024-03-02T05:21:33;1.48;;;0.90;;
67869;SDS011;54673;52.262;6.830;2024-03-02T05:23:59;0.83;;;0.60;;
67869;SDS011;54673;52.262;6.830;2024-03-02T05:26:25;1.45;;;0.90;;
67869;SDS011;54673;52.262;6.830;2024-03-02T05:28:50;1.63;;;0.70;;
67869;SDS011;54673;52.262;6.830;2024-03-02T05:31:16;1.70;;;0.73;;
67869;SDS011;54673;52.262;6.830;2024-03-02T05:33:42;2.30;;;0.80;;
67869;SDS011;54673;52.262;6.830;2024-03-02T05:36:08;2.17;;;0.70;;
67869;SDS011;54673;52.262;6.830;2024-03-02T05:38:34;1.87;;;0.90;;
67869;SDS011;54673;52.262;6.830;2024-03-02T05:41:00;1.65;;;0.70;;
67869;SDS011;54673;52.262;6.830;2024-03-02T05:43:26;3.53;;;0.50;;
67869;SDS011;54673;52.262;6.830;2024-03-02T05:45:52;2.33;;;0.63;;
67869;SDS011;54673;52.262;6.830;2024-03-02T05:48:17;2.10;;;0.63;;
67869;SDS011;54673;52.262;6.830;2024-03-02T05:50:43;0.93;;;0.60;;
67869;SDS011;54673;52.262;6.830;2024-03-02T05:53:08;2.42;;;0.60;;
67869;SDS011;54673;52.262;6.830;2024-03-02T05:55:34;2.00;;;0.60;;
67869;SDS011;54673;52.262;6.830;2024-03-02T05:58:00;1.45;;;0.60;;
67869;SDS011;54673;52.262;6.830;2024-03-02T06:00:47;2.10;;;0.50;;
67869;SDS011;54673;52.262;6.830;2024-03-02T06:03:13;1.05;;;0.60;;
67869;SDS011;54673;52.262;6.830;2024-03-02T06:05:38;0.97;;;0.60;;
67869;SDS011;54673;52.262;6.830;2024-03-02T06:08:05;1.20;;;0.50;;
67869;SDS011;54673;52.262;6.830;2024-03-02T06:10:32;0.87;;;0.60;;
67869;SDS011;54673;52.262;6.830;2024-03-02T06:12:57;1.40;;;0.60;;
67869;SDS011;54673;52.262;6.830;2024-03-02T06:15:24;1.70;;;0.70;;
67869;SDS011;54673;52.262;6.830;2024-03-02T06:17:49;1.25;;;0.60;;
67869;SDS011;54673;52.262;6.830;2024-03-02T06:20:15;6.13;;;0.60;;
67869;SDS011;54673;52.262;6.830;2024-03-02T06:22:40;1.53;;;0.67;;
67869;SDS011;54673;52.262;6.830;2024-03-02T06:25:06;0.73;;;0.60;;
67869;SDS011;54673;52.262;6.830;2024-03-02T06:27:32;1.47;;;0.60;;
67869;SDS011;54673;52.262;6.830;2024-03-02T06:29:57;2.55;;;0.52;;
67869;SDS011;54673;52.262;6.830;2024-03-02T06:32:23;3.13;;;0.75;;
67869;SDS011;54673;52.262;6.830;2024-03-02T06:34:50;1.00;;;0.80;;
67869;SDS011;54673;52.262;6.830;2024-03-02T06:37:15;2.20;;;0.60;;
67869;SDS011;54673;52.262;6.830;2024-03-02T06:39:41;0.90;;;0.60;;
67869;SDS011;54673;52.262;6.830;2024-03-02T06:42:07;4.53;;;0.55;;
67869;SDS011;54673;52.262;6.830;2024-03-02T06:44:32;1.10;;;0.60;;
67869;SDS011;54673;52.262;6.830;2024-03-02T06:46:58;0.98;;;0.55;;
67869;SDS011;54673;52.262;6.830;2024-03-02T06:49:24;2.85;;;0.60;;
67869;SDS011;54673;52.262;6.830;2024-03-02T06:51:49;1.40;;;0.70;;
67869;SDS011;54673;52.262;6.830;2024-03-02T06:54:15;1.27;;;0.70;;
67869;SDS011;54673;52.262;6.830;2024-03-02T06:56:41;0.95;;;0.50;;
67869;SDS011;54673;52.262;6.830;2024-03-02T06:59:06;2.17;;;0.60;;
67869;SDS011;54673;52.262;6.830;2024-03-02T07:01:32;2.22;;;0.80;;
67869;SDS011;54673;52.262;6.830;2024-03-02T07:03:57;1.07;;;0.70;;
67869;SDS011;54673;52.262;6.830;2024-03-02T07:06:23;2.07;;;0.73;;
67869;SDS011;54673;52.262;6.830;2024-03-02T07:08:49;2.55;;;0.70;;
67869;SDS011;54673;52.262;6.830;2024-03-02T07:11:14;2.47;;;0.75;;
67869;SDS011;54673;52.262;6.830;2024-03-02T07:13:40;1.23;;;0.53;;
67869;SDS011;54673;52.262;6.830;2024-03-02T07:16:05;1.23;;;0.50;;
67869;SDS011;54673;52.262;6.830;2024-03-02T07:18:49;1.30;;;0.60;;
67869;SDS011;54673;52.262;6.830;2024-03-02T07:21:16;1.02;;;0.68;;
67869;SDS011;54673;52.262;6.830;2024-03-02T07:23:42;1.47;;;0.70;;
67869;SDS011;54673;52.262;6.830;2024-03-02T07:26:08;1.15;;;0.63;;
67869;SDS011;54673;52.262;6.830;2024-03-02T07:28:33;1.42;;;0.82;;
67869;SDS011;54673;52.262;6.830;2024-03-02T07:31:03;2.27;;;0.80;;
67869;SDS011;54673;52.262;6.830;2024-03-02T07:33:29;2.22;;;1.17;;
67869;SDS011;54673;52.262;6.830;2024-03-02T07:35:55;2.28;;;1.08;;
67869;SDS011;54673;52.262;6.830;2024-03-02T07:38:21;2.30;;;1.20;;
67869;SDS011;54673;52.262;6.830;2024-03-02T07:40:48;2.38;;;1.08;;
67869;SDS011;54673;52.262;6.830;2024-03-02T07:43:17;1.03;;;0.60;;
67869;SDS011;54673;52.262;6.830;2024-03-02T07:45:44;4.13;;;0.93;;
67869;SDS011;54673;52.262;6.830;2024-03-02T07:48:09;1.90;;;1.40;;
67869;SDS011;54673;52.262;6.830;2024-03-02T07:50:35;3.53;;;1.73;;
67869;SDS011;54673;52.262;6.830;2024-03-02T07:53:02;3.20;;;1.20;;
67869;SDS011;54673;52.262;6.830;2024-03-02T07:55:29;1.30;;;0.70;;
67869;SDS011;54673;52.262;6.830;2024-03-02T07:57:55;3.15;;;1.08;;
67869;SDS011;54673;52.262;6.830;2024-03-02T08:00:21;1.48;;;1.00;;
67869;SDS011;54673;52.262;6.830;2024-03-02T08:02:48;1.87;;;1.33;;
67869;SDS011;54673;52.262;6.830;2024-03-02T08:05:14;1.15;;;0.85;;
67869;SDS011;54673;52.262;6.830;2024-03-02T08:07:40;2.27;;;1.30;;
67869;SDS011;54673;52.262;6.830;2024-03-02T08:10:06;2.70;;;1.55;;
67869;SDS011;54673;52.262;6.830;2024-03-02T08:12:32;3.25;;;2.10;;
67869;SDS011;54673;52.262;6.830;2024-03-02T08:14:57;2.37;;;1.30;;
67869;SDS011;54673;52.262;6.830;2024-03-02T08:17:23;3.67;;;1.30;;
67869;SDS011;54673;52.262;6.830;2024-03-02T08:19:48;2.63;;;1.83;;
67869;SDS011;54673;52.262;6.830;2024-03-02T08:22:15;3.47;;;1.37;;
67869;SDS011;54673;52.262;6.830;2024-03-02T08:24:40;3.05;;;1.10;;
67869;SDS011;54673;52.262;6.830;2024-03-02T08:27:06;2.67;;;1.40;;
67869;SDS011;54673;52.262;6.830;2024-03-02T08:29:32;4.45;;;1.80;;
67869;SDS011;54673;52.262;6.830;2024-03-02T08:31:57;2.73;;;1.50;;
67869;SDS011;54673;52.262;6.830;2024-03-02T08:34:23;2.80;;;1.37;;
67869;SDS011;54673;52.262;6.830;2024-03-02T08:36:48;2.63;;;1.23;;
67869;SDS011;54673;52.262;6.830;2024-03-02T08:39:14;6.00;;;1.77;;
67869;SDS011;54673;52.262;6.830;2024-03-02T08:41:41;4.15;;;1.55;;
67869;SDS011;54673;52.262;6.830;2024-03-02T08:44:08;3.47;;;1.63;;
67869;SDS011;54673;52.262;6.830;2024-03-02T08:46:34;2.38;;;1.52;;
67869;SDS011;54673;52.262;6.830;2024-03-02T08:49:00;3.42;;;1.58;;
67869;SDS011;54673;52.262;6.830;2024-03-02T08:51:25;4.43;;;2.20;;
67869;SDS011;54673;52.262;6.830;2024-03-02T08:53:51;4.23;;;1.47;;
67869;SDS011;54673;52.262;6.830;2024-03-02T08:56:16;3.38;;;1.42;;
67869;SDS011;54673;52.262;6.830;2024-03-02T08:58:42;1.67;;;1.33;;
67869;SDS011;54673;52.262;6.830;2024-03-02T09:01:09;2.97;;;1.60;;
67869;SDS011;54673;52.262;6.830;2024-03-02T09:03:35;2.53;;;0.90;;
67869;SDS011;54673;52.262;6.830;2024-03-02T09:06:02;2.58;;;1.10;;
67869;SDS011;54673;52.262;6.830;2024-03-02T09:08:28;2.78;;;1.38;;
67869;SDS011;54673;52.262;6.830;2024-03-02T09:10:54;2.40;;;1.30;;
67869;SDS011;54673;52.262;6.830;2024-03-02T09:13:20;1.95;;;1.00;;
67869;SDS011;54673;52.262;6.830;2024-03-02T09:15:47;2.53;;;1.20;;
67869;SDS011;54673;52.262;6.830;2024-03-02T09:18:13;2.38;;;1.10;;
67869;SDS011;54673;52.262;6.830;2024-03-02T09:20:38;2.77;;;1.20;;
67869;SDS011;54673;52.262;6.830;2024-03-02T09:23:04;2.80;;;1.52;;
67869;SDS011;54673;52.262;6.830;2024-03-02T09:25:29;0.70;;;0.60;;
67869;SDS011;54673;52.262;6.830;2024-03-02T09:27:55;1.90;;;1.03;;
67869;SDS011;54673;52.262;6.830;2024-03-02T09:30:20;2.40;;;1.45;;
67869;SDS011;54673;52.262;6.830;2024-03-02T09:32:46;2.03;;;1.50;;
67869;SDS011;54673;52.262;6.830;2024-03-02T09:35:11;2.00;;;1.60;;
67869;SDS011;54673;52.262;6.830;2024-03-02T09:37:37;2.85;;;1.38;;
67869;SDS011;54673;52.262;6.830;2024-03-02T09:40:03;3.07;;;1.40;;
67869;SDS011;54673;52.262;6.830;2024-03-02T09:42:29;2.10;;;1.23;;
67869;SDS011;54673;52.262;6.830;2024-03-02T09:44:55;6.47;;;1.47;;
67869;SDS011;54673;52.262;6.830;2024-03-02T09:47:21;3.38;;;1.38;;
67869;SDS011;54673;52.262;6.830;2024-03-02T09:49:47;3.40;;;1.50;;
67869;SDS011;54673;52.262;6.830;2024-03-02T09:52:14;2.00;;;1.40;;
67869;SDS011;54673;52.262;6.830;2024-03-02T09:54:40;3.38;;;1.30;;
67869;SDS011;54673;52.262;6.830;2024-03-02T09:57:05;3.45;;;1.40;;
67869;SDS011;54673;52.262;6.830;2024-03-02T09:59:31;2.93;;;1.27;;
67869;SDS011;54673;52.262;6.830;2024-03-02T10:02:01;1.80;;;1.38;;
67869;SDS011;54673;52.262;6.830;2024-03-02T10:04:28;1.00;;;0.80;;
67869;SDS011;54673;52.262;6.830;2024-03-02T10:09:41;3.90;;;2.07;;
67869;SDS011;54673;52.262;6.830;2024-03-02T10:12:08;3.35;;;1.80;;
67869;SDS011;54673;52.262;6.830;2024-03-02T10:14:34;3.67;;;1.73;;
67869;SDS011;54673;52.262;6.830;2024-03-02T10:17:05;4.93;;;2.30;;
67869;SDS011;54673;52.262;6.830;2024-03-02T10:19:32;2.45;;;1.77;;
67869;SDS011;54673;52.262;6.830;2024-03-02T10:22:00;2.80;;;1.90;;
67869;SDS011;54673;52.262;6.830;2024-03-02T10:24:27;5.25;;;2.30;;
67869;SDS011;54673;52.262;6.830;2024-03-02T10:27:00;3.78;;;1.60;;
67869;SDS011;54673;52.262;6.830;2024-03-02T10:29:27;6.03;;;1.67;;
67869;SDS011;54673;52.262;6.830;2024-03-02T10:31:55;3.47;;;1.67;;
67869;SDS011;54673;52.262;6.830;2024-03-02T10:34:21;2.70;;;1.83;;
67869;SDS011;54673;52.262;6.830;2024-03-02T10:36:47;4.60;;;1.95;;
67869;SDS011;54673;52.262;6.830;2024-03-02T10:39:13;3.37;;;1.77;;
67869;SDS011;54673;52.262;6.830;2024-03-02T10:41:39;1.85;;;1.60;;
67869;SDS011;54673;52.262;6.830;2024-03-02T10:44:06;1.67;;;1.27;;
67869;SDS011;54673;52.262;6.830;2024-03-02T10:46:35;4.50;;;1.90;;
67869;SDS011;54673;52.262;6.830;2024-03-02T10:49:01;4.95;;;2.08;;
67869;SDS011;54673;52.262;6.830;2024-03-02T10:51:29;4.23;;;2.43;;
67869;SDS011;54673;52.262;6.830;2024-03-02T10:54:01;7.70;;;2.67;;
67869;SDS011;54673;52.262;6.830;2024-03-02T10:56:29;3.87;;;2.70;;
67869;SDS011;54673;52.262;6.830;2024-03-02T10:59:03;3.78;;;2.30;;
67869;SDS011;54673;52.262;6.830;2024-03-02T11:01:41;4.18;;;2.22;;
67869;SDS011;54673;52.262;6.830;2024-03-02T11:04:09;5.70;;;2.67;;
67869;SDS011;54673;52.262;6.830;2024-03-02T11:06:37;3.83;;;2.33;;
67869;SDS011;54673;52.262;6.830;2024-03-02T11:09:06;1.67;;;1.20;;
67869;SDS011;54673;52.262;6.830;2024-03-02T11:11:37;3.47;;;2.25;;
67869;SDS011;54673;52.262;6.830;2024-03-02T11:14:07;7.82;;;1.80;;
67869;SDS011;54673;52.262;6.830;2024-03-02T11:16:37;3.17;;;1.70;;
67869;SDS011;54673;52.262;6.830;2024-03-02T11:19:05;2.80;;;1.40;;
67869;SDS011;54673;52.262;6.830;2024-03-02T11:21:36;4.40;;;1.90;;
67869;SDS011;54673;52.262;6.830;2024-03-02T11:26:46;3.55;;;1.90;;
67869;SDS011;54673;52.262;6.830;2024-03-02T11:32:00;5.28;;;1.95;;
67869;SDS011;54673;52.262;6.830;2024-03-02T11:34:35;4.27;;;1.93;;
67869;SDS011;54673;52.262;6.830;2024-03-02T11:37:01;4.82;;;2.47;;
67869;SDS011;54673;52.262;6.830;2024-03-02T11:39:28;3.42;;;1.25;;
67869;SDS011;54673;52.262;6.830;2024-03-02T11:41:54;4.50;;;1.43;;
67869;SDS011;54673;52.262;6.830;2024-03-02T11:44:21;2.83;;;1.17;;
67869;SDS011;54673;52.262;6.830;2024-03-02T11:46:51;3.80;;;1.97;;
67869;SDS011;54673;52.262;6.830;2024-03-02T11:52:14;2.70;;;1.63;;
67869;SDS011;54673;52.262;6.830;2024-03-02T11:54:42;1.83;;;1.42;;
67869;SDS011;54673;52.262;6.830;2024-03-02T11:57:12;2.55;;;1.58;;
67869;SDS011;54673;52.262;6.830;2024-03-02T11:59:42;2.77;;;1.70;;
67869;SDS011;54673;52.262;6.830;2024-03-02T12:02:12;2.70;;;1.30;;
67869;SDS011;54673;52.262;6.830;2024-03-02T12:04:41;1.47;;;1.10;;
67869;SDS011;54673;52.262;6.830;2024-03-02T12:07:08;21.25;;;1.30;;
67869;SDS011;54673;52.262;6.830;2024-03-02T12:09:34;3.72;;;1.63;;
67869;SDS011;54673;52.262;6.830;2024-03-02T12:12:06;2.03;;;1.40;;
67869;SDS011;54673;52.262;6.830;2024-03-02T12:14:35;3.25;;;1.58;;
67869;SDS011;54673;52.262;6.830;2024-03-02T12:17:02;2.67;;;1.20;;
67869;SDS011;54673;52.262;6.830;2024-03-02T12:19:28;2.83;;;1.40;;
67869;SDS011;54673;52.262;6.830;2024-03-02T12:21:55;4.43;;;1.63;;
67869;SDS011;54673;52.262;6.830;2024-03-02T12:24:21;9.73;;;1.50;;
67869;SDS011;54673;52.262;6.830;2024-03-02T12:26:51;2.28;;;1.10;;
67869;SDS011;54673;52.262;6.830;2024-03-02T12:29:18;3.30;;;1.40;;
67869;SDS011;54673;52.262;6.830;2024-03-02T12:31:45;3.88;;;1.27;;
67869;SDS011;54673;52.262;6.830;2024-03-02T12:34:16;3.85;;;1.30;;
67869;SDS011;54673;52.262;6.830;2024-03-02T12:36:43;2.93;;;1.33;;
67869;SDS011;54673;52.262;6.830;2024-03-02T12:39:12;3.80;;;1.58;;
67869;SDS011;54673;52.262;6.830;2024-03-02T12:41:38;3.77;;;1.23;;
67869;SDS011;54673;52.262;6.830;2024-03-02T12:44:05;3.92;;;0.90;;
67869;SDS011;54673;52.262;6.830;2024-03-02T12:46:33;3.83;;;0.90;;
67869;SDS011;54673;52.262;6.830;2024-03-02T12:49:05;3.67;;;1.37;;
67869;SDS011;54673;52.262;6.830;2024-03-02T12:51:36;2.83;;;1.17;;
67869;SDS011;54673;52.262;6.830;2024-03-02T12:54:05;2.70;;;0.97;;
67869;SDS011;54673;52.262;6.830;2024-03-02T12:56:37;1.40;;;0.90;;
67869;SDS011;54673;52.262;6.830;2024-03-02T12:59:03;1.65;;;0.88;;
67869;SDS011;54673;52.262;6.830;2024-03-02T13:01:29;3.37;;;1.00;;
67869;SDS011;54673;52.262;6.830;2024-03-02T13:03:57;4.28;;;1.20;;
67869;SDS011;54673;52.262;6.830;2024-03-02T13:06:23;1.30;;;0.80;;
67869;SDS011;54673;52.262;6.830;2024-03-02T13:08:52;1.80;;;1.00;;
67869;SDS011;54673;52.262;6.830;2024-03-02T13:11:18;2.05;;;0.93;;
67869;SDS011;54673;52.262;6.830;2024-03-02T13:13:44;1.50;;;1.00;;
67869;SDS011;54673;52.262;6.830;2024-03-02T13:16:10;2.92;;;1.20;;
67869;SDS011;54673;52.262;6.830;2024-03-02T13:18:40;6.30;;;1.20;;
67869;SDS011;54673;52.262;6.830;2024-03-02T13:21:06;2.20;;;1.30;;
67869;SDS011;54673;52.262;6.830;2024-03-02T13:23:35;3.00;;;1.33;;
67869;SDS011;54673;52.262;6.830;2024-03-02T13:26:01;3.00;;;1.10;;
67869;SDS011;54673;52.262;6.830;2024-03-02T13:28:26;2.15;;;1.10;;
67869;SDS011;54673;52.262;6.830;2024-03-02T13:30:52;2.10;;;0.90;;
67869;SDS011;54673;52.262;6.830;2024-03-02T13:33:18;1.33;;;1.13;;
67869;SDS011;54673;52.262;6.830;2024-03-02T13:35:50;2.97;;;1.00;;
67869;SDS011;54673;52.262;6.830;2024-03-02T13:38:19;3.47;;;1.00;;
67869;SDS011;54673;52.262;6.830;2024-03-02T13:40:45;0.97;;;0.67;;
67869;SDS011;54673;52.262;6.830;2024-03-02T13:43:13;3.25;;;1.88;;
67869;SDS011;54673;52.262;6.830;2024-03-02T13:45:39;1.90;;;0.88;;
67869;SDS011;54673;52.262;6.830;2024-03-02T13:48:04;2.60;;;1.33;;
67869;SDS011;54673;52.262;6.830;2024-03-02T13:50:30;2.15;;;1.00;;
67869;SDS011;54673;52.262;6.830;2024-03-02T13:52:56;2.27;;;1.00;;
67869;SDS011;54673;52.262;6.830;2024-03-02T13:55:22;2.10;;;0.97;;
67869;SDS011;54673;52.262;6.830;2024-03-02T13:57:47;2.63;;;0.82;;
67869;SDS011;54673;52.262;6.830;2024-03-02T14:00:15;0.85;;;0.73;;
67869;SDS011;54673;52.262;6.830;2024-03-02T14:02:42;3.83;;;1.50;;
67869;SDS011;54673;52.262;6.830;2024-03-02T14:05:08;2.05;;;0.98;;
67869;SDS011;54673;52.262;6.830;2024-03-02T14:07:40;2.80;;;1.03;;
67869;SDS011;54673;52.262;6.830;2024-03-02T14:10:06;1.60;;;0.80;;
67869;SDS011;54673;52.262;6.830;2024-03-02T14:12:32;2.38;;;1.00;;
67869;SDS011;54673;52.262;6.830;2024-03-02T14:14:58;3.63;;;1.10;;
67869;SDS011;54673;52.262;6.830;2024-03-02T14:17:24;1.35;;;1.15;;
67869;SDS011;54673;52.262;6.830;2024-03-02T14:19:50;1.63;;;1.00;;
67869;SDS011;54673;52.262;6.830;2024-03-02T14:22:17;3.08;;;0.93;;
67869;SDS011;54673;52.262;6.830;2024-03-02T14:24:42;2.13;;;1.00;;
67869;SDS011;54673;52.262;6.830;2024-03-02T14:27:08;2.13;;;0.98;;
67869;SDS011;54673;52.262;6.830;2024-03-02T14:29:34;4.40;;;1.10;;
67869;SDS011;54673;52.262;6.830;2024-03-02T14:32:02;2.45;;;1.10;;
67869;SDS011;54673;52.262;6.830;2024-03-02T14:34:31;2.95;;;1.05;;
67869;SDS011;54673;52.262;6.830;2024-03-02T14:36:56;3.07;;;0.90;;
67869;SDS011;54673;52.262;6.830;2024-03-02T14:39:22;1.67;;;1.03;;
67869;SDS011;54673;52.262;6.830;2024-03-02T14:41:47;2.75;;;1.15;;
67869;SDS011;54673;52.262;6.830;2024-03-02T14:44:13;1.07;;;0.97;;
67869;SDS011;54673;52.262;6.830;2024-03-02T14:46:40;1.60;;;0.90;;
67869;SDS011;54673;52.262;6.830;2024-03-02T14:49:06;1.88;;;1.10;;
67869;SDS011;54673;52.262;6.830;2024-03-02T14:51:32;0.80;;;0.63;;
67869;SDS011;54673;52.262;6.830;2024-03-02T14:53:58;2.22;;;0.90;;
67869;SDS011;54673;52.262;6.830;2024-03-02T14:56:23;4.07;;;1.10;;
67869;SDS011;54673;52.262;6.830;2024-03-02T14:58:49;1.00;;;0.77;;
67869;SDS011;54673;52.262;6.830;2024-03-02T15:01:16;2.60;;;1.00;;